sensor_id;sensor_type;location;lat;lon;timestamp;P1;durP1;ratioP1;P2;durP2;ratioP2
37047;SDS011;23227;48.780;9.210;2023-06-10T00:01:09;10.60;;;4.33;;
37047;SDS011;23227;48.780;9.210;2023-06-10T00:04:12;6.90;;;4.47;;
37047;SDS011;23227;48.780;9.210;2023-06-10T00:07:15;5.85;;;4.60;;
37047;SDS011;23227;48.780;9.210;2023-06-10T00:10:17;5.07;;;3.67;;
37047;SDS011;23227;48.780;9.210;2023-06-10T00:13:22;6.47;;;3.80;;
37047;SDS011;23227;48.780;9.210;2023-06-10T00:16:25;5.27;;;4.03;;
37047;SDS011;23227;48.780;9.210;2023-06-10T00:19:28;7.70;;;4.68;;
37047;SDS011;23227;48.780;9.210;2023-06-10T00:25:33;6.20;;;4.27;;
37047;SDS011;23227;48.780;9.210;2023-06-10T00:28:37;6.50;;;4.75;;
37047;SDS011;23227;48.780;9.210;2023-06-10T00:31:40;6.73;;;4.93;;
37047;SDS011;23227;48.780;9.210;2023-06-10T00:34:43;7.95;;;4.25;;
37047;SDS011;23227;48.780;9.210;2023-06-10T00:37:46;7.82;;;4.30;;
37047;SDS011;23227;48.780;9.210;2023-06-10T00:40:48;6.60;;;4.63;;
37047;SDS011;23227;48.780;9.210;2023-06-10T00:43:53;5.28;;;4.43;;
37047;SDS011;23227;48.780;9.210;2023-06-10T00:46:56;6.87;;;4.23;;
37047;SDS011;23227;48.780;9.210;2023-06-10T00:49:58;6.35;;;4.47;;
37047;SDS011;23227;48.780;9.210;2023-06-10T00:53:02;5.20;;;4.15;;
37047;SDS011;23227;48.780;9.210;2023-06-10T00:59:09;6.80;;;4.10;;
37047;SDS011;23227;48.780;9.210;2023-06-10T01:02:11;5.47;;;4.43;;
37047;SDS011;23227;48.780;9.210;2023-06-10T01:05:14;6.30;;;4.05;;
37047;SDS011;23227;48.780;9.210;2023-06-10T01:08:18;6.22;;;4.75;;
37047;SDS011;23227;48.780;9.210;2023-06-10T01:11:28;6.47;;;4.23;;
37047;SDS011;23227;48.780;9.210;2023-06-10T01:14:35;4.93;;;4.10;;
37047;SDS011;23227;48.780;9.210;2023-06-10T01:17:52;6.43;;;4.27;;
37047;SDS011;23227;48.780;9.210;2023-06-10T01:20:56;6.67;;;4.37;;
37047;SDS011;23227;48.780;9.210;2023-06-10T01:24:00;7.85;;;4.65;;
37047;SDS011;23227;48.780;9.210;2023-06-10T01:27:05;6.20;;;4.47;;
37047;SDS011;23227;48.780;9.210;2023-06-10T01:30:11;7.37;;;4.83;;
37047;SDS011;23227;48.780;9.210;2023-06-10T01:33:19;6.70;;;4.57;;
37047;SDS011;23227;48.780;9.210;2023-06-10T01:36:28;8.10;;;4.67;;
37047;SDS011;23227;48.780;9.210;2023-06-10T01:39:32;7.03;;;4.53;;
37047;SDS011;23227;48.780;9.210;2023-06-10T01:42:35;5.40;;;4.20;;
37047;SDS011;23227;48.780;9.210;2023-06-10T01:45:38;6.28;;;4.65;;
37047;SDS011;23227;48.780;9.210;2023-06-10T01:48:41;10.15;;;5.15;;
37047;SDS011;23227;48.780;9.210;2023-06-10T01:51:44;6.43;;;4.47;;
37047;SDS011;23227;48.780;9.210;2023-06-10T01:54:48;6.93;;;3.95;;
37047;SDS011;23227;48.780;9.210;2023-06-10T01:57:51;6.67;;;4.50;;
37047;SDS011;23227;48.780;9.210;2023-06-10T02:00:54;6.85;;;4.35;;
37047;SDS011;23227;48.780;9.210;2023-06-10T02:03:57;6.30;;;4.00;;
37047;SDS011;23227;48.780;9.210;2023-06-10T02:07:00;4.47;;;3.88;;
37047;SDS011;23227;48.780;9.210;2023-06-10T02:10:07;8.13;;;4.70;;
37047;SDS011;23227;48.780;9.210;2023-06-10T02:13:10;7.40;;;5.37;;
37047;SDS011;23227;48.780;9.210;2023-06-10T02:16:13;6.03;;;3.92;;
37047;SDS011;23227;48.780;9.210;2023-06-10T02:19:18;8.43;;;4.40;;
37047;SDS011;23227;48.780;9.210;2023-06-10T02:22:23;5.73;;;4.90;;
37047;SDS011;23227;48.780;9.210;2023-06-10T02:25:28;13.03;;;4.83;;
37047;SDS011;23227;48.780;9.210;2023-06-10T02:28:30;6.33;;;4.40;;
37047;SDS011;23227;48.780;9.210;2023-06-10T02:31:33;5.65;;;4.80;;
37047;SDS011;23227;48.780;9.210;2023-06-10T02:34:37;8.07;;;4.43;;
37047;SDS011;23227;48.780;9.210;2023-06-10T02:37:40;6.53;;;4.13;;
37047;SDS011;23227;48.780;9.210;2023-06-10T02:40:44;7.30;;;4.72;;
37047;SDS011;23227;48.780;9.210;2023-06-10T02:43:47;5.63;;;3.93;;
37047;SDS011;23227;48.780;9.210;2023-06-10T02:46:50;6.68;;;4.63;;
37047;SDS011;23227;48.780;9.210;2023-06-10T02:49:52;5.30;;;4.40;;
37047;SDS011;23227;48.780;9.210;2023-06-10T02:52:55;6.10;;;4.43;;
37047;SDS011;23227;48.780;9.210;2023-06-10T02:55:59;5.60;;;4.03;;
37047;SDS011;23227;48.780;9.210;2023-06-10T02:59:02;6.00;;;4.20;;
37047;SDS011;23227;48.780;9.210;2023-06-10T03:02:04;8.05;;;4.65;;
37047;SDS011;23227;48.780;9.210;2023-06-10T03:05:08;10.45;;;5.80;;
37047;SDS011;23227;48.780;9.210;2023-06-10T03:08:12;6.30;;;4.60;;
37047;SDS011;23227;48.780;9.210;2023-06-10T03:11:16;5.47;;;4.35;;
37047;SDS011;23227;48.780;9.210;2023-06-10T03:14:20;7.00;;;4.60;;
37047;SDS011;23227;48.780;9.210;2023-06-10T03:17:23;5.65;;;4.20;;
37047;SDS011;23227;48.780;9.210;2023-06-10T03:20:26;5.18;;;4.43;;
37047;SDS011;23227;48.780;9.210;2023-06-10T03:26:34;8.82;;;4.60;;
37047;SDS011;23227;48.780;9.210;2023-06-10T03:29:37;6.33;;;4.37;;
37047;SDS011;23227;48.780;9.210;2023-06-10T03:32:40;7.60;;;5.13;;
37047;SDS011;23227;48.780;9.210;2023-06-10T03:35:43;6.00;;;4.90;;
37047;SDS011;23227;48.780;9.210;2023-06-10T03:38:46;10.65;;;4.55;;
37047;SDS011;23227;48.780;9.210;2023-06-10T03:41:50;7.28;;;4.85;;
37047;SDS011;23227;48.780;9.210;2023-06-10T03:44:53;6.80;;;4.80;;
37047;SDS011;23227;48.780;9.210;2023-06-10T03:47:56;5.32;;;4.32;;
37047;SDS011;23227;48.780;9.210;2023-06-10T03:50:59;6.20;;;3.97;;
37047;SDS011;23227;48.780;9.210;2023-06-10T03:54:01;7.78;;;4.38;;
37047;SDS011;23227;48.780;9.210;2023-06-10T03:57:06;5.18;;;4.35;;
37047;SDS011;23227;48.780;9.210;2023-06-10T04:00:09;5.33;;;4.47;;
37047;SDS011;23227;48.780;9.210;2023-06-10T04:03:13;7.10;;;4.40;;
37047;SDS011;23227;48.780;9.210;2023-06-10T04:09:19;5.67;;;4.50;;
37047;SDS011;23227;48.780;9.210;2023-06-10T04:12:23;6.57;;;4.32;;
37047;SDS011;23227;48.780;9.210;2023-06-10T04:15:26;5.93;;;3.93;;
37047;SDS011;23227;48.780;9.210;2023-06-10T04:18:29;5.88;;;4.50;;
37047;SDS011;23227;48.780;9.210;2023-06-10T04:21:32;7.30;;;4.38;;
37047;SDS011;23227;48.780;9.210;2023-06-10T04:24:35;6.90;;;4.50;;
37047;SDS011;23227;48.780;9.210;2023-06-10T04:27:39;7.20;;;4.90;;
37047;SDS011;23227;48.780;9.210;2023-06-10T04:30:43;6.53;;;4.27;;
37047;SDS011;23227;48.780;9.210;2023-06-10T04:33:46;6.72;;;4.55;;
37047;SDS011;23227;48.780;9.210;2023-06-10T04:36:49;5.43;;;4.47;;
37047;SDS011;23227;48.780;9.210;2023-06-10T04:39:52;5.22;;;4.03;;
37047;SDS011;23227;48.780;9.210;2023-06-10T04:42:56;5.05;;;3.85;;
37047;SDS011;23227;48.780;9.210;2023-06-10T04:45:58;6.00;;;4.40;;
37047;SDS011;23227;48.780;9.210;2023-06-10T04:49:01;5.78;;;4.65;;
37047;SDS011;23227;48.780;9.210;2023-06-10T04:52:06;7.57;;;4.20;;
37047;SDS011;23227;48.780;9.210;2023-06-10T04:58:13;5.60;;;4.45;;
37047;SDS011;23227;48.780;9.210;2023-06-10T05:01:17;7.70;;;4.90;;
37047;SDS011;23227;48.780;9.210;2023-06-10T05:04:20;8.27;;;5.13;;
37047;SDS011;23227;48.780;9.210;2023-06-10T05:07:22;6.70;;;4.45;;
37047;SDS011;23227;48.780;9.210;2023-06-10T05:10:25;6.18;;;4.45;;
37047;SDS011;23227;48.780;9.210;2023-06-10T05:13:29;6.72;;;4.07;;
37047;SDS011;23227;48.780;9.210;2023-06-10T05:16:32;6.17;;;4.17;;
37047;SDS011;23227;48.780;9.210;2023-06-10T05:19:35;4.97;;;3.88;;
37047;SDS011;23227;48.780;9.210;2023-06-10T05:22:38;7.33;;;4.93;;
37047;SDS011;23227;48.780;9.210;2023-06-10T05:28:46;6.30;;;4.03;;
37047;SDS011;23227;48.780;9.210;2023-06-10T05:31:48;5.60;;;4.53;;
37047;SDS011;23227;48.780;9.210;2023-06-10T05:34:51;5.80;;;4.25;;
37047;SDS011;23227;48.780;9.210;2023-06-10T05:37:54;5.10;;;4.05;;
37047;SDS011;23227;48.780;9.210;2023-06-10T05:40:57;5.45;;;4.03;;
37047;SDS011;23227;48.780;9.210;2023-06-10T05:44:01;5.88;;;3.97;;
37047;SDS011;23227;48.780;9.210;2023-06-10T05:47:04;5.67;;;4.27;;
37047;SDS011;23227;48.780;9.210;2023-06-10T05:50:08;5.75;;;4.43;;
37047;SDS011;23227;48.780;9.210;2023-06-10T05:53:11;6.07;;;4.03;;
37047;SDS011;23227;48.780;9.210;2023-06-10T05:56:16;4.60;;;3.50;;
37047;SDS011;23227;48.780;9.210;2023-06-10T05:59:20;5.38;;;3.67;;
37047;SDS011;23227;48.780;9.210;2023-06-10T06:02:24;9.43;;;4.30;;
37047;SDS011;23227;48.780;9.210;2023-06-10T06:05:27;6.10;;;4.07;;
37047;SDS011;23227;48.780;9.210;2023-06-10T06:08:36;5.90;;;3.90;;
37047;SDS011;23227;48.780;9.210;2023-06-10T06:11:38;8.93;;;4.00;;
37047;SDS011;23227;48.780;9.210;2023-06-10T06:14:42;4.70;;;3.63;;
37047;SDS011;23227;48.780;9.210;2023-06-10T06:17:46;5.97;;;4.03;;
37047;SDS011;23227;48.780;9.210;2023-06-10T06:20:49;4.63;;;3.80;;
37047;SDS011;23227;48.780;9.210;2023-06-10T06:26:54;5.87;;;3.73;;
37047;SDS011;23227;48.780;9.210;2023-06-10T06:29:59;4.68;;;3.97;;
37047;SDS011;23227;48.780;9.210;2023-06-10T06:33:02;7.13;;;5.03;;
37047;SDS011;23227;48.780;9.210;2023-06-10T06:39:08;8.95;;;4.20;;
37047;SDS011;23227;48.780;9.210;2023-06-10T06:42:11;6.38;;;3.40;;
37047;SDS011;23227;48.780;9.210;2023-06-10T06:45:15;4.82;;;3.50;;
37047;SDS011;23227;48.780;9.210;2023-06-10T06:48:18;4.37;;;3.53;;
37047;SDS011;23227;48.780;9.210;2023-06-10T06:51:21;5.55;;;4.07;;
37047;SDS011;23227;48.780;9.210;2023-06-10T06:54:23;5.40;;;3.75;;
37047;SDS011;23227;48.780;9.210;2023-06-10T06:57:26;4.95;;;3.95;;
37047;SDS011;23227;48.780;9.210;2023-06-10T07:00:30;4.57;;;3.40;;
37047;SDS011;23227;48.780;9.210;2023-06-10T07:03:32;4.70;;;4.00;;
37047;SDS011;23227;48.780;9.210;2023-06-10T07:06:35;4.05;;;3.38;;
37047;SDS011;23227;48.780;9.210;2023-06-10T07:09:39;5.73;;;3.87;;
37047;SDS011;23227;48.780;9.210;2023-06-10T07:12:41;6.07;;;3.70;;
37047;SDS011;23227;48.780;9.210;2023-06-10T07:15:45;4.50;;;3.92;;
37047;SDS011;23227;48.780;9.210;2023-06-10T07:18:48;5.67;;;4.60;;
37047;SDS011;23227;48.780;9.210;2023-06-10T07:21:50;4.75;;;3.40;;
37047;SDS011;23227;48.780;9.210;2023-06-10T07:24:53;4.70;;;3.80;;
37047;SDS011;23227;48.780;9.210;2023-06-10T07:27:56;6.83;;;3.50;;
37047;SDS011;23227;48.780;9.210;2023-06-10T07:31:00;5.35;;;3.55;;
37047;SDS011;23227;48.780;9.210;2023-06-10T07:34:04;7.07;;;3.80;;
37047;SDS011;23227;48.780;9.210;2023-06-10T07:37:06;6.72;;;3.55;;
37047;SDS011;23227;48.780;9.210;2023-06-10T07:40:10;6.43;;;4.13;;
37047;SDS011;23227;48.780;9.210;2023-06-10T07:43:12;7.05;;;3.72;;
37047;SDS011;23227;48.780;9.210;2023-06-10T07:46:16;5.65;;;3.30;;
37047;SDS011;23227;48.780;9.210;2023-06-10T07:49:19;4.87;;;3.63;;
37047;SDS011;23227;48.780;9.210;2023-06-10T07:52:22;3.45;;;3.15;;
37047;SDS011;23227;48.780;9.210;2023-06-10T07:55:24;4.93;;;3.40;;
37047;SDS011;23227;48.780;9.210;2023-06-10T07:58:29;5.13;;;4.00;;
37047;SDS011;23227;48.780;9.210;2023-06-10T08:01:33;6.40;;;3.90;;
37047;SDS011;23227;48.780;9.210;2023-06-10T08:04:37;7.27;;;4.40;;
37047;SDS011;23227;48.780;9.210;2023-06-10T08:07:39;5.45;;;3.30;;
37047;SDS011;23227;48.780;9.210;2023-06-10T08:10:42;6.03;;;3.75;;
37047;SDS011;23227;48.780;9.210;2023-06-10T08:13:45;4.68;;;3.20;;
37047;SDS011;23227;48.780;9.210;2023-06-10T08:16:49;8.45;;;3.53;;
37047;SDS011;23227;48.780;9.210;2023-06-10T08:19:52;3.65;;;3.30;;
37047;SDS011;23227;48.780;9.210;2023-06-10T08:22:54;4.00;;;3.55;;
37047;SDS011;23227;48.780;9.210;2023-06-10T08:25:57;5.68;;;3.60;;
37047;SDS011;23227;48.780;9.210;2023-06-10T08:32:04;4.45;;;3.53;;
37047;SDS011;23227;48.780;9.210;2023-06-10T08:35:07;4.50;;;3.30;;
37047;SDS011;23227;48.780;9.210;2023-06-10T08:38:11;4.03;;;3.40;;
37047;SDS011;23227;48.780;9.210;2023-06-10T08:41:14;10.30;;;4.15;;
37047;SDS011;23227;48.780;9.210;2023-06-10T08:44:22;4.00;;;3.03;;
37047;SDS011;23227;48.780;9.210;2023-06-10T08:47:30;4.80;;;3.03;;
37047;SDS011;23227;48.780;9.210;2023-06-10T08:50:33;5.45;;;3.88;;
37047;SDS011;23227;48.780;9.210;2023-06-10T08:53:37;5.13;;;3.38;;
37047;SDS011;23227;48.780;9.210;2023-06-10T08:56:40;5.57;;;3.03;;
37047;SDS011;23227;48.780;9.210;2023-06-10T08:59:44;3.60;;;3.05;;
37047;SDS011;23227;48.780;9.210;2023-06-10T09:05:51;7.47;;;3.08;;
37047;SDS011;23227;48.780;9.210;2023-06-10T09:11:56;5.00;;;3.03;;
37047;SDS011;23227;48.780;9.210;2023-06-10T09:14:58;2.70;;;2.50;;
37047;SDS011;23227;48.780;9.210;2023-06-10T09:18:05;4.32;;;3.00;;
37047;SDS011;23227;48.780;9.210;2023-06-10T09:21:08;3.80;;;3.10;;
37047;SDS011;23227;48.780;9.210;2023-06-10T09:24:10;4.47;;;3.13;;
37047;SDS011;23227;48.780;9.210;2023-06-10T09:27:13;3.55;;;2.67;;
37047;SDS011;23227;48.780;9.210;2023-06-10T09:30:25;3.25;;;2.92;;
37047;SDS011;23227;48.780;9.210;2023-06-10T09:33:31;3.85;;;3.20;;
37047;SDS011;23227;48.780;9.210;2023-06-10T09:36:34;3.75;;;3.13;;
37047;SDS011;23227;48.780;9.210;2023-06-10T09:39:38;4.53;;;3.28;;
37047;SDS011;23227;48.780;9.210;2023-06-10T09:45:43;5.50;;;2.95;;
37047;SDS011;23227;48.780;9.210;2023-06-10T09:48:47;3.75;;;3.05;;
37047;SDS011;23227;48.780;9.210;2023-06-10T09:51:51;3.78;;;3.40;;
37047;SDS011;23227;48.780;9.210;2023-06-10T09:54:59;5.75;;;2.97;;
37047;SDS011;23227;48.780;9.210;2023-06-10T09:58:03;4.70;;;3.58;;
37047;SDS011;23227;48.780;9.210;2023-06-10T10:01:05;4.57;;;3.42;;
37047;SDS011;23227;48.780;9.210;2023-06-10T10:04:10;4.72;;;3.15;;
37047;SDS011;23227;48.780;9.210;2023-06-10T10:07:13;4.75;;;3.03;;
37047;SDS011;23227;48.780;9.210;2023-06-10T10:10:17;4.88;;;3.42;;
37047;SDS011;23227;48.780;9.210;2023-06-10T10:13:20;4.38;;;3.33;;
37047;SDS011;23227;48.780;9.210;2023-06-10T10:16:26;4.38;;;2.78;;
37047;SDS011;23227;48.780;9.210;2023-06-10T10:19:34;4.72;;;3.00;;
37047;SDS011;23227;48.780;9.210;2023-06-10T10:22:41;3.30;;;3.00;;
37047;SDS011;23227;48.780;9.210;2023-06-10T10:25:45;3.20;;;2.90;;
37047;SDS011;23227;48.780;9.210;2023-06-10T10:28:58;4.03;;;3.15;;
37047;SDS011;23227;48.780;9.210;2023-06-10T10:32:07;3.38;;;3.00;;
37047;SDS011;23227;48.780;9.210;2023-06-10T10:35:13;7.10;;;3.00;;
37047;SDS011;23227;48.780;9.210;2023-06-10T10:38:18;3.33;;;2.90;;
37047;SDS011;23227;48.780;9.210;2023-06-10T10:41:21;4.82;;;2.72;;
37047;SDS011;23227;48.780;9.210;2023-06-10T10:44:25;4.20;;;3.00;;
37047;SDS011;23227;48.780;9.210;2023-06-10T10:47:28;5.00;;;2.50;;
37047;SDS011;23227;48.780;9.210;2023-06-10T10:50:32;6.15;;;2.78;;
37047;SDS011;23227;48.780;9.210;2023-06-10T10:53:36;3.65;;;2.78;;
37047;SDS011;23227;48.780;9.210;2023-06-10T10:56:39;3.40;;;2.65;;
37047;SDS011;23227;48.780;9.210;2023-06-10T11:03:05;3.70;;;2.83;;
37047;SDS011;23227;48.780;9.210;2023-06-10T11:06:13;3.63;;;3.10;;
37047;SDS011;23227;48.780;9.210;2023-06-10T11:09:26;4.93;;;2.70;;
37047;SDS011;23227;48.780;9.210;2023-06-10T11:12:40;4.78;;;3.33;;
37047;SDS011;23227;48.780;9.210;2023-06-10T11:15:43;3.25;;;2.90;;
37047;SDS011;23227;48.780;9.210;2023-06-10T11:18:48;5.05;;;2.92;;
37047;SDS011;23227;48.780;9.210;2023-06-10T11:22:00;3.65;;;2.78;;
37047;SDS011;23227;48.780;9.210;2023-06-10T11:25:04;3.97;;;2.97;;
37047;SDS011;23227;48.780;9.210;2023-06-10T11:28:18;3.17;;;2.88;;
37047;SDS011;23227;48.780;9.210;2023-06-10T11:31:21;5.07;;;3.00;;
37047;SDS011;23227;48.780;9.210;2023-06-10T11:34:25;4.28;;;3.33;;
37047;SDS011;23227;48.780;9.210;2023-06-10T11:37:30;4.90;;;3.15;;
37047;SDS011;23227;48.780;9.210;2023-06-10T11:40:32;4.30;;;3.20;;
37047;SDS011;23227;48.780;9.210;2023-06-10T11:43:36;3.65;;;3.20;;
37047;SDS011;23227;48.780;9.210;2023-06-10T11:46:39;3.20;;;2.90;;
37047;SDS011;23227;48.780;9.210;2023-06-10T11:49:44;4.03;;;2.92;;
37047;SDS011;23227;48.780;9.210;2023-06-10T11:52:51;5.38;;;2.90;;
37047;SDS011;23227;48.780;9.210;2023-06-10T11:55:57;6.75;;;3.10;;
37047;SDS011;23227;48.780;9.210;2023-06-10T11:59:00;3.78;;;2.95;;
37047;SDS011;23227;48.780;9.210;2023-06-10T12:02:05;3.40;;;2.88;;
37047;SDS011;23227;48.780;9.210;2023-06-10T12:05:12;4.07;;;2.65;;
37047;SDS011;23227;48.780;9.210;2023-06-10T12:08:16;3.92;;;2.90;;
37047;SDS011;23227;48.780;9.210;2023-06-10T12:11:19;3.53;;;2.45;;
37047;SDS011;23227;48.780;9.210;2023-06-10T12:17:55;5.93;;;2.90;;
37047;SDS011;23227;48.780;9.210;2023-06-10T12:20:58;6.45;;;2.97;;
37047;SDS011;23227;48.780;9.210;2023-06-10T12:24:03;3.95;;;2.83;;
37047;SDS011;23227;48.780;9.210;2023-06-10T12:27:10;3.25;;;2.70;;
37047;SDS011;23227;48.780;9.210;2023-06-10T12:30:18;4.15;;;2.90;;
37047;SDS011;23227;48.780;9.210;2023-06-10T12:33:21;5.82;;;2.85;;
37047;SDS011;23227;48.780;9.210;2023-06-10T12:36:24;5.93;;;2.63;;
37047;SDS011;23227;48.780;9.210;2023-06-10T12:39:28;3.45;;;2.78;;
37047;SDS011;23227;48.780;9.210;2023-06-10T12:42:31;6.38;;;2.53;;
37047;SDS011;23227;48.780;9.210;2023-06-10T12:45:36;17.20;;;3.58;;
37047;SDS011;23227;48.780;9.210;2023-06-10T12:48:49;4.80;;;2.63;;
37047;SDS011;23227;48.780;9.210;2023-06-10T12:51:53;2.63;;;2.42;;
37047;SDS011;23227;48.780;9.210;2023-06-10T12:54:57;3.53;;;2.40;;
37047;SDS011;23227;48.780;9.210;2023-06-10T12:58:02;3.33;;;2.80;;
37047;SDS011;23227;48.780;9.210;2023-06-10T13:01:04;3.15;;;2.40;;
37047;SDS011;23227;48.780;9.210;2023-06-10T13:04:07;3.45;;;2.60;;
37047;SDS011;23227;48.780;9.210;2023-06-10T13:07:11;4.15;;;2.63;;
37047;SDS011;23227;48.780;9.210;2023-06-10T13:10:15;2.88;;;2.60;;
37047;SDS011;23227;48.780;9.210;2023-06-10T13:13:18;2.97;;;2.30;;
37047;SDS011;23227;48.780;9.210;2023-06-10T13:16:21;5.55;;;2.65;;
37047;SDS011;23227;48.780;9.210;2023-06-10T13:19:24;3.72;;;2.78;;
37047;SDS011;23227;48.780;9.210;2023-06-10T13:22:27;3.42;;;2.50;;
37047;SDS011;23227;48.780;9.210;2023-06-10T13:25:31;2.60;;;2.40;;
37047;SDS011;23227;48.780;9.210;2023-06-10T13:28:34;2.47;;;2.10;;
37047;SDS011;23227;48.780;9.210;2023-06-10T13:31:37;4.95;;;2.78;;
37047;SDS011;23227;48.780;9.210;2023-06-10T13:34:40;2.42;;;2.22;;
37047;SDS011;23227;48.780;9.210;2023-06-10T13:37:42;5.07;;;2.42;;
37047;SDS011;23227;48.780;9.210;2023-06-10T13:40:47;2.90;;;2.30;;
37047;SDS011;23227;48.780;9.210;2023-06-10T13:43:50;3.00;;;2.15;;
37047;SDS011;23227;48.780;9.210;2023-06-10T13:46:52;2.10;;;1.83;;
37047;SDS011;23227;48.780;9.210;2023-06-10T13:49:55;2.38;;;2.17;;
37047;SDS011;23227;48.780;9.210;2023-06-10T13:52:58;4.28;;;2.50;;
37047;SDS011;23227;48.780;9.210;2023-06-10T13:56:06;2.28;;;2.08;;
37047;SDS011;23227;48.780;9.210;2023-06-10T13:59:08;2.67;;;2.33;;
37047;SDS011;23227;48.780;9.210;2023-06-10T14:02:11;2.80;;;1.92;;
37047;SDS011;23227;48.780;9.210;2023-06-10T14:05:14;3.47;;;1.95;;
37047;SDS011;23227;48.780;9.210;2023-06-10T14:08:17;3.35;;;1.95;;
37047;SDS011;23227;48.780;9.210;2023-06-10T14:11:21;2.67;;;2.13;;
37047;SDS011;23227;48.780;9.210;2023-06-10T14:14:24;4.30;;;1.88;;
37047;SDS011;23227;48.780;9.210;2023-06-10T14:17:26;3.33;;;2.30;;
37047;SDS011;23227;48.780;9.210;2023-06-10T14:20:29;2.45;;;2.25;;
37047;SDS011;23227;48.780;9.210;2023-06-10T14:23:32;4.32;;;2.30;;
37047;SDS011;23227;48.780;9.210;2023-06-10T14:26:37;2.45;;;2.25;;
37047;SDS011;23227;48.780;9.210;2023-06-10T14:29:39;2.65;;;1.92;;
37047;SDS011;23227;48.780;9.210;2023-06-10T14:32:42;2.10;;;1.90;;
37047;SDS011;23227;48.780;9.210;2023-06-10T14:35:45;2.50;;;2.30;;
37047;SDS011;23227;48.780;9.210;2023-06-10T14:38:47;3.00;;;1.92;;
37047;SDS011;23227;48.780;9.210;2023-06-10T14:41:52;2.92;;;2.25;;
37047;SDS011;23227;48.780;9.210;2023-06-10T14:44:55;6.82;;;2.03;;
37047;SDS011;23227;48.780;9.210;2023-06-10T14:47:57;2.65;;;2.35;;
37047;SDS011;23227;48.780;9.210;2023-06-10T14:51:00;3.25;;;2.63;;
37047;SDS011;23227;48.780;9.210;2023-06-10T14:54:03;3.38;;;2.40;;
37047;SDS011;23227;48.780;9.210;2023-06-10T14:57:07;3.00;;;2.28;;
37047;SDS011;23227;48.780;9.210;2023-06-10T15:00:10;2.20;;;1.88;;
37047;SDS011;23227;48.780;9.210;2023-06-10T15:03:20;4.60;;;2.72;;
37047;SDS011;23227;48.780;9.210;2023-06-10T15:06:23;3.42;;;2.35;;
37047;SDS011;23227;48.780;9.210;2023-06-10T15:09:26;3.65;;;2.20;;
37047;SDS011;23227;48.780;9.210;2023-06-10T15:12:30;2.78;;;2.08;;
37047;SDS011;23227;48.780;9.210;2023-06-10T15:15:32;2.63;;;2.42;;
37047;SDS011;23227;48.780;9.210;2023-06-10T15:18:35;3.92;;;2.60;;
37047;SDS011;23227;48.780;9.210;2023-06-10T15:21:38;2.50;;;2.30;;
37047;SDS011;23227;48.780;9.210;2023-06-10T15:24:41;2.40;;;2.20;;
37047;SDS011;23227;48.780;9.210;2023-06-10T15:27:45;2.50;;;2.30;;
37047;SDS011;23227;48.780;9.210;2023-06-10T15:30:48;4.65;;;2.50;;
37047;SDS011;23227;48.780;9.210;2023-06-10T15:33:51;2.40;;;2.20;;
37047;SDS011;23227;48.780;9.210;2023-06-10T15:36:53;2.58;;;2.13;;
37047;SDS011;23227;48.780;9.210;2023-06-10T15:39:56;3.72;;;2.20;;
37047;SDS011;23227;48.780;9.210;2023-06-10T15:43:00;2.80;;;2.35;;
37047;SDS011;23227;48.780;9.210;2023-06-10T15:46:03;4.55;;;2.65;;
37047;SDS011;23227;48.780;9.210;2023-06-10T15:49:06;3.22;;;2.15;;
37047;SDS011;23227;48.780;9.210;2023-06-10T15:52:08;2.05;;;1.90;;
37047;SDS011;23227;48.780;9.210;2023-06-10T15:55:11;2.38;;;2.17;;
37047;SDS011;23227;48.780;9.210;2023-06-10T15:58:15;2.90;;;1.90;;
37047;SDS011;23227;48.780;9.210;2023-06-10T16:01:18;2.85;;;2.10;;
37047;SDS011;23227;48.780;9.210;2023-06-10T16:04:21;2.20;;;1.60;;
37047;SDS011;23227;48.780;9.210;2023-06-10T16:07:24;3.75;;;2.10;;
37047;SDS011;23227;48.780;9.210;2023-06-10T16:10:26;2.13;;;1.92;;
37047;SDS011;23227;48.780;9.210;2023-06-10T16:13:30;2.05;;;1.85;;
37047;SDS011;23227;48.780;9.210;2023-06-10T16:16:33;2.35;;;1.90;;
37047;SDS011;23227;48.780;9.210;2023-06-10T16:19:36;4.88;;;2.20;;
37047;SDS011;23227;48.780;9.210;2023-06-10T16:22:40;3.08;;;2.30;;
37047;SDS011;23227;48.780;9.210;2023-06-10T16:25:43;2.28;;;2.08;;
37047;SDS011;23227;48.780;9.210;2023-06-10T16:28:48;3.60;;;2.15;;
37047;SDS011;23227;48.780;9.210;2023-06-10T16:31:51;3.55;;;2.00;;
37047;SDS011;23227;48.780;9.210;2023-06-10T16:34:53;2.30;;;1.98;;
37047;SDS011;23227;48.780;9.210;2023-06-10T16:37:57;2.47;;;1.90;;
37047;SDS011;23227;48.780;9.210;2023-06-10T16:41:03;1.80;;;1.70;;
37047;SDS011;23227;48.780;9.210;2023-06-10T16:44:07;3.55;;;1.60;;
37047;SDS011;23227;48.780;9.210;2023-06-10T16:47:10;1.90;;;1.80;;
37047;SDS011;23227;48.780;9.210;2023-06-10T16:50:12;2.10;;;1.90;;
37047;SDS011;23227;48.780;9.210;2023-06-10T16:53:15;2.10;;;1.85;;
37047;SDS011;23227;48.780;9.210;2023-06-10T16:56:18;2.05;;;1.85;;
37047;SDS011;23227;48.780;9.210;2023-06-10T16:59:22;2.15;;;1.95;;
37047;SDS011;23227;48.780;9.210;2023-06-10T17:02:25;2.47;;;1.85;;
37047;SDS011;23227;48.780;9.210;2023-06-10T17:05:28;2.08;;;1.60;;
37047;SDS011;23227;48.780;9.210;2023-06-10T17:08:31;2.38;;;1.90;;
37047;SDS011;23227;48.780;9.210;2023-06-10T17:11:33;2.20;;;1.98;;
37047;SDS011;23227;48.780;9.210;2023-06-10T17:14:37;1.85;;;1.75;;
37047;SDS011;23227;48.780;9.210;2023-06-10T17:17:40;3.83;;;1.98;;
37047;SDS011;23227;48.780;9.210;2023-06-10T17:20:43;2.08;;;1.88;;
37047;SDS011;23227;48.780;9.210;2023-06-10T17:23:46;2.45;;;2.05;;
37047;SDS011;23227;48.780;9.210;2023-06-10T17:26:48;3.92;;;1.70;;
37047;SDS011;23227;48.780;9.210;2023-06-10T17:29:52;2.00;;;1.90;;
37047;SDS011;23227;48.780;9.210;2023-06-10T17:32:55;2.85;;;1.98;;
37047;SDS011;23227;48.780;9.210;2023-06-10T17:35:58;2.13;;;1.92;;
37047;SDS011;23227;48.780;9.210;2023-06-10T17:39:00;4.72;;;2.10;;
37047;SDS011;23227;48.780;9.210;2023-06-10T17:42:03;2.40;;;2.20;;
37047;SDS011;23227;48.780;9.210;2023-06-10T17:45:09;2.63;;;2.42;;
37047;SDS011;23227;48.780;9.210;2023-06-10T17:48:12;2.38;;;2.17;;
37047;SDS011;23227;48.780;9.210;2023-06-10T17:51:15;2.58;;;2.20;;
37047;SDS011;23227;48.780;9.210;2023-06-10T17:54:17;2.80;;;2.50;;
37047;SDS011;23227;48.780;9.210;2023-06-10T17:57:20;3.45;;;3.15;;
37047;SDS011;23227;48.780;9.210;2023-06-10T18:00:24;3.33;;;2.95;;
37047;SDS011;23227;48.780;9.210;2023-06-10T18:03:27;4.07;;;2.72;;
37047;SDS011;23227;48.780;9.210;2023-06-10T18:06:30;3.10;;;2.80;;
37047;SDS011;23227;48.780;9.210;2023-06-10T18:09:33;4.15;;;3.28;;
37047;SDS011;23227;48.780;9.210;2023-06-10T18:12:35;3.72;;;2.83;;
37047;SDS011;23227;48.780;9.210;2023-06-10T18:15:39;3.03;;;2.72;;
37047;SDS011;23227;48.780;9.210;2023-06-10T18:18:42;2.78;;;2.38;;
37047;SDS011;23227;48.780;9.210;2023-06-10T18:21:45;3.88;;;3.10;;
37047;SDS011;23227;48.780;9.210;2023-06-10T18:24:48;4.40;;;3.30;;
37047;SDS011;23227;48.780;9.210;2023-06-10T18:27:51;3.17;;;2.53;;
37047;SDS011;23227;48.780;9.210;2023-06-10T18:33:57;3.38;;;3.08;;
37047;SDS011;23227;48.780;9.210;2023-06-10T18:37:00;4.18;;;2.97;;
37047;SDS011;23227;48.780;9.210;2023-06-10T18:40:04;2.95;;;2.65;;
37047;SDS011;23227;48.780;9.210;2023-06-10T18:43:10;3.30;;;3.00;;
37047;SDS011;23227;48.780;9.210;2023-06-10T18:46:15;5.10;;;2.95;;
37047;SDS011;23227;48.780;9.210;2023-06-10T18:49:18;3.25;;;2.80;;
37047;SDS011;23227;48.780;9.210;2023-06-10T18:52:21;5.60;;;3.00;;
37047;SDS011;23227;48.780;9.210;2023-06-10T18:58:26;2.90;;;2.42;;
37047;SDS011;23227;48.780;9.210;2023-06-10T19:01:30;3.00;;;2.70;;
37047;SDS011;23227;48.780;9.210;2023-06-10T19:04:33;3.45;;;3.15;;
37047;SDS011;23227;48.780;9.210;2023-06-10T19:07:35;5.30;;;2.90;;
37047;SDS011;23227;48.780;9.210;2023-06-10T19:16:45;3.67;;;3.05;;
37047;SDS011;23227;48.780;9.210;2023-06-10T19:19:48;5.88;;;3.10;;
37047;SDS011;23227;48.780;9.210;2023-06-10T19:25:53;5.43;;;3.30;;